sensor_id;sensor_type;location;lat;lon;timestamp;P1;P2;P0
65360;PMS5003;51958;55.018;73.536;2023-06-26T17:38:34;7.00;7.00;4.00
65360;PMS5003;51958;55.018;73.536;2023-06-26T17:41:38;8.00;8.00;3.00
65360;PMS5003;51958;55.018;73.536;2023-06-26T17:44:39;8.50;7.00;4.00
65360;PMS5003;51958;55.018;73.536;2023-06-26T17:47:40;8.67;8.00;5.00
65360;PMS5003;51958;55.018;73.536;2023-06-26T17:50:46;9.75;8.75;4.00
65360;PMS5003;51958;55.018;73.536;2023-06-26T17:53:48;8.00;8.00;4.00
65360;PMS5003;51958;55.018;73.536;2023-06-26T17:56:52;7.00;7.00;3.50
65360;PMS5003;51958;55.018;73.536;2023-06-26T17:59:53;7.50;7.00;4.00
65360;PMS5003;51958;55.018;73.536;2023-06-26T18:02:56;7.00;7.00;3.00
65360;PMS5003;51958;55.018;73.536;2023-06-26T18:05:57;6.00;5.00;3.00
65360;PMS5003;51958;55.018;73.536;2023-06-26T18:08:59;6.00;6.00;3.00
65360;PMS5003;51958;55.018;73.536;2023-06-26T18:12:05;6.00;6.00;2.00
65360;PMS5003;51958;55.018;73.536;2023-06-26T18:18:33;4.33;4.33;2.00
65360;PMS5003;51958;55.018;73.536;2023-06-26T18:21:37;6.00;6.00;3.00
65360;PMS5003;51958;55.018;73.536;2023-06-26T18:24:39;4.00;4.00;2.00
65360;PMS5003;51958;55.018;73.536;2023-06-26T18:27:40;5.00;4.33;2.00
65360;PMS5003;51958;55.018;73.536;2023-06-26T18:30:43;6.00;5.00;4.00
65360;PMS5003;51958;55.018;73.536;2023-06-26T18:33:44;6.00;5.00;2.00
65360;PMS5003;51958;55.018;73.536;2023-06-26T18:36:45;6.00;6.00;3.00
65360;PMS5003;51958;55.018;73.536;2023-06-26T18:39:48;5.25;5.25;2.00
65360;PMS5003;51958;55.018;73.536;2023-06-26T18:42:50;5.00;5.00;1.00
65360;PMS5003;51958;55.018;73.536;2023-06-26T18:45:54;4.00;4.00;0.00
65360;PMS5003;51958;55.018;73.536;2023-06-26T18:48:59;3.00;3.00;0.00
65360;PMS5003;51958;55.018;73.536;2023-06-26T18:52:01;2.00;2.00;0.00
65360;PMS5003;51958;55.018;73.536;2023-06-26T18:55:02;4.00;3.00;1.50
65360;PMS5003;51958;55.018;73.536;2023-06-26T18:58:04;3.00;3.00;2.00
65360;PMS5003;51958;55.018;73.536;2023-06-26T19:01:05;3.50;3.50;1.50
65360;PMS5003;51958;55.018;73.536;2023-06-26T19:04:08;4.00;3.00;2.00
65360;PMS5003;51958;55.018;73.536;2023-06-26T19:07:09;3.00;3.00;1.00
65360;PMS5003;51958;55.018;73.536;2023-06-26T19:10:10;4.50;3.50;0.50
65360;PMS5003;51958;55.018;73.536;2023-06-26T19:13:19;4.25;4.00;0.00
65360;PMS5003;51958;55.018;73.536;2023-06-26T19:16:20;2.00;2.00;0.00
65360;PMS5003;51958;55.018;73.536;2023-06-26T19:19:21;2.00;2.00;0.00
65360;PMS5003;51958;55.018;73.536;2023-06-26T19:22:22;3.50;3.00;0.00
65360;PMS5003;51958;55.018;73.536;2023-06-26T19:25:23;4.00;4.00;1.00
65360;PMS5003;51958;55.018;73.536;2023-06-26T19:28:33;4.00;4.00;1.00
65360;PMS5003;51958;55.018;73.536;2023-06-26T19:31:34;7.25;5.25;1.50
65360;PMS5003;51958;55.018;73.536;2023-06-26T19:34:35;4.00;4.00;1.00
65360;PMS5003;51958;55.018;73.536;2023-06-26T19:37:36;3.25;3.25;1.25
65360;PMS5003;51958;55.018;73.536;2023-06-26T19:40:38;4.00;4.00;1.00
65360;PMS5003;51958;55.018;73.536;2023-06-26T19:43:41;5.00;4.00;1.00
65360;PMS5003;51958;55.018;73.536;2023-06-26T19:46:42;2.00;2.00;1.00
65360;PMS5003;51958;55.018;73.536;2023-06-26T19:49:43;4.75;3.75;1.00
65360;PMS5003;51958;55.018;73.536;2023-06-26T19:52:46;3.00;3.00;0.00
65360;PMS5003;51958;55.018;73.536;2023-06-26T19:55:47;2.25;2.25;0.00
65360;PMS5003;51958;55.018;73.536;2023-06-26T19:58:49;3.00;3.00;0.00
65360;PMS5003;51958;55.018;73.536;2023-06-26T20:01:50;4.00;4.00;1.00
65360;PMS5003;51958;55.018;73.536;2023-06-26T20:04:51;4.00;4.00;1.00
65360;PMS5003;51958;55.018;73.536;2023-06-26T20:07:52;3.00;3.00;1.00
65360;PMS5003;51958;55.018;73.536;2023-06-26T20:10:53;4.75;4.00;1.00
65360;PMS5003;51958;55.018;73.536;2023-06-26T20:13:54;2.50;2.50;1.50
65360;PMS5003;51958;55.018;73.536;2023-06-26T20:16:55;3.00;2.00;0.00
65360;PMS5003;51958;55.018;73.536;2023-06-26T20:19:56;3.00;2.00;0.00
65360;PMS5003;51958;55.018;73.536;2023-06-26T20:22:57;4.00;3.00;0.00
65360;PMS5003;51958;55.018;73.536;2023-06-26T20:25:58;3.75;3.25;0.50
65360;PMS5003;51958;55.018;73.536;2023-06-26T20:28:59;4.00;4.00;0.00
65360;PMS5003;51958;55.018;73.536;2023-06-26T20:32:01;4.00;4.00;0.00
65360;PMS5003;51958;55.018;73.536;2023-06-26T20:35:02;3.00;3.00;0.00
65360;PMS5003;51958;55.018;73.536;2023-06-26T20:38:04;2.67;1.67;0.00
65360;PMS5003;51958;55.018;73.536;2023-06-26T20:41:06;5.00;5.00;1.00
65360;PMS5003;51958;55.018;73.536;2023-06-26T20:44:07;4.00;4.00;2.00
65360;PMS5003;51958;55.018;73.536;2023-06-26T20:47:08;5.00;5.00;2.25
65360;PMS5003;51958;55.018;73.536;2023-06-26T20:50:10;5.00;5.00;2.00
65360;PMS5003;51958;55.018;73.536;2023-06-26T20:53:12;4.00;4.00;2.00
65360;PMS5003;51958;55.018;73.536;2023-06-26T20:56:16;6.00;5.00;3.00
65360;PMS5003;51958;55.018;73.536;2023-06-26T20:59:17;5.00;5.00;3.00
65360;PMS5003;51958;55.018;73.536;2023-06-26T21:02:19;5.50;4.75;2.75
65360;PMS5003;51958;55.018;73.536;2023-06-26T21:05:21;5.00;5.00;2.00
65360;PMS5003;51958;55.018;73.536;2023-06-26T21:08:23;4.33;4.33;2.33
65360;PMS5003;51958;55.018;73.536;2023-06-26T21:11:25;3.75;3.00;1.00
65360;PMS5003;51958;55.018;73.536;2023-06-26T21:14:26;4.75;3.75;1.00
65360;PMS5003;51958;55.018;73.536;2023-06-26T21:17:27;5.00;5.00;1.00
65360;PMS5003;51958;55.018;73.536;2023-06-26T21:20:29;5.00;4.00;1.00
65360;PMS5003;51958;55.018;73.536;2023-06-26T21:23:30;6.00;6.00;3.50
65360;PMS5003;51958;55.018;73.536;2023-06-26T21:26:31;5.00;5.00;2.25
65360;PMS5003;51958;55.018;73.536;2023-06-26T21:29:32;5.00;5.00;3.00
65360;PMS5003;51958;55.018;73.536;2023-06-26T21:32:33;6.00;6.00;2.25
65360;PMS5003;51958;55.018;73.536;2023-06-26T21:35:34;5.00;5.00;3.00
65360;PMS5003;51958;55.018;73.536;2023-06-26T21:38:35;6.00;5.00;2.00
65360;PMS5003;51958;55.018;73.536;2023-06-26T21:41:36;6.50;6.50;2.00
65360;PMS5003;51958;55.018;73.536;2023-06-26T21:44:37;6.50;6.50;2.00
65360;PMS5003;51958;55.018;73.536;2023-06-26T21:47:38;6.00;6.00;3.00
65360;PMS5003;51958;55.018;73.536;2023-06-26T21:50:39;8.25;8.25;4.00
65360;PMS5003;51958;55.018;73.536;2023-06-26T21:53:40;8.00;8.00;4.00
65360;PMS5003;51958;55.018;73.536;2023-06-26T21:56:41;7.25;7.25;4.00
65360;PMS5003;51958;55.018;73.536;2023-06-26T21:59:42;6.00;6.00;4.00
65360;PMS5003;51958;55.018;73.536;2023-06-26T22:02:43;7.25;7.00;4.00
65360;PMS5003;51958;55.018;73.536;2023-06-26T22:05:44;7.00;7.00;4.00
65360;PMS5003;51958;55.018;73.536;2023-06-26T22:08:45;10.00;9.67;5.00
65360;PMS5003;51958;55.018;73.536;2023-06-26T22:11:46;9.33;8.00;5.00
65360;PMS5003;51958;55.018;73.536;2023-06-26T22:14:47;7.00;6.00;4.00
65360;PMS5003;51958;55.018;73.536;2023-06-26T22:17:51;7.00;7.00;4.00
65360;PMS5003;51958;55.018;73.536;2023-06-26T22:20:53;8.00;7.50;4.00
65360;PMS5003;51958;55.018;73.536;2023-06-26T22:23:54;10.00;8.00;5.00
65360;PMS5003;51958;55.018;73.536;2023-06-26T22:26:55;9.75;8.00;4.00
65360;PMS5003;51958;55.018;73.536;2023-06-26T22:30:02;8.00;7.00;4.00
65360;PMS5003;51958;55.018;73.536;2023-06-26T22:33:05;8.00;6.75;4.00
65360;PMS5003;51958;55.018;73.536;2023-06-26T22:36:06;9.25;8.50;4.00
65360;PMS5003;51958;55.018;73.536;2023-06-26T22:39:07;10.00;10.00;6.00
65360;PMS5003;51958;55.018;73.536;2023-06-26T22:42:08;10.00;10.00;5.00
65360;PMS5003;51958;55.018;73.536;2023-06-26T22:45:09;9.67;9.33;5.00
65360;PMS5003;51958;55.018;73.536;2023-06-26T22:48:11;9.75;9.00;4.75
65360;PMS5003;51958;55.018;73.536;2023-06-26T22:51:12;11.00;10.00;5.00
65360;PMS5003;51958;55.018;73.536;2023-06-26T22:54:13;8.33;8.33;5.00
65360;PMS5003;51958;55.018;73.536;2023-06-26T22:57:16;10.00;10.00;5.50
65360;PMS5003;51958;55.018;73.536;2023-06-26T23:00:20;8.33;8.00;4.00
65360;PMS5003;51958;55.018;73.536;2023-06-26T23:03:21;9.00;9.00;5.00
65360;PMS5003;51958;55.018;73.536;2023-06-26T23:06:22;10.00;10.00;5.00
65360;PMS5003;51958;55.018;73.536;2023-06-26T23:09:29;13.50;11.25;5.25
65360;PMS5003;51958;55.018;73.536;2023-06-26T23:12:31;14.00;11.00;5.00
65360;PMS5003;51958;55.018;73.536;2023-06-26T23:15:32;11.25;9.00;5.00
65360;PMS5003;51958;55.018;73.536;2023-06-26T23:18:36;11.00;10.00;6.00
65360;PMS5003;51958;55.018;73.536;2023-06-26T23:21:37;10.67;9.00;5.00
65360;PMS5003;51958;55.018;73.536;2023-06-26T23:24:38;9.00;8.00;5.50
65360;PMS5003;51958;55.018;73.536;2023-06-26T23:27:40;8.00;6.00;4.00
65360;PMS5003;51958;55.018;73.536;2023-06-26T23:30:41;9.00;7.00;3.00
65360;PMS5003;51958;55.018;73.536;2023-06-26T23:33:43;9.00;9.00;5.00
65360;PMS5003;51958;55.018;73.536;2023-06-26T23:36:44;11.50;10.50;5.75
65360;PMS5003;51958;55.018;73.536;2023-06-26T23:39:46;9.00;9.00;4.00
65360;PMS5003;51958;55.018;73.536;2023-06-26T23:42:47;10.00;10.00;5.00
65360;PMS5003;51958;55.018;73.536;2023-06-26T23:49:19;10.00;8.00;6.00
65360;PMS5003;51958;55.018;73.536;2023-06-26T23:55:49;8.00;8.00;4.00
65360;PMS5003;51958;55.018;73.536;2023-06-26T23:58:50;8.00;7.00;4.00
